Time;durP1;ratioP1;P1;durP2;ratioP2;P2;SDS_P1;SDS_P2;PMS_P1;PMS_P2;Temp;Humidity;BMP_temperature;BMP_pressure;BME280_temperature;BME280_humidity;BME280_pressure;Samples;Min_cycle;Max_cycle;Signal;HPM_P1;HPM_P2
2021/10/22 00:01:56;;;;;;;10.55;2.13;;;;;;;5.41;100.00;101275.38;2610518;36;20031;-65
2021/10/22 00:04:27;;;;;;;10.90;2.15;;;;;;;5.39;100.00;101269.28;2611287;31;20526;-67
2021/10/22 00:06:55;;;;;;;13.15;2.47;;;;;;;5.35;100.00;101271.25;2610779;36;20072;-65
2021/10/22 00:09:23;;;;;;;15.77;2.72;;;;;;;5.33;100.00;101278.50;2610862;31;20610;-66
2021/10/22 00:11:52;;;;;;;10.10;2.00;;;;;;;5.39;100.00;101267.47;2611432;36;20494;-65
2021/10/22 00:14:20;;;;;;;12.38;1.92;;;;;;;5.37;100.00;101277.34;2610675;36;20072;-65
2021/10/22 00:16:49;;;;;;;16.98;2.13;;;;;;;5.38;100.00;101275.56;2610788;36;20034;-67
2021/10/22 00:19:17;;;;;;;18.23;2.53;;;;;;;5.46;100.00;101267.94;2610489;31;20146;-65
2021/10/22 00:21:48;;;;;;;12.23;2.53;;;;;;;5.60;100.00;101267.97;2611357;36;20118;-66
2021/10/22 00:24:16;;;;;;;6.03;1.77;;;;;;;5.65;100.00;101261.47;2610674;36;20053;-66
2021/10/22 00:26:44;;;;;;;12.77;2.05;;;;;;;5.60;100.00;101262.63;2610907;36;20084;-66
2021/10/22 00:29:12;;;;;;;18.60;3.10;;;;;;;5.57;100.00;101254.81;2611348;36;20622;-66
2021/10/22 00:31:41;;;;;;;15.25;2.67;;;;;;;5.56;100.00;101247.72;2610846;36;20038;-66
2021/10/22 00:34:09;;;;;;;12.15;2.58;;;;;;;5.52;100.00;101262.25;2611319;31;20034;-66
2021/10/22 00:36:38;;;;;;;14.52;2.63;;;;;;;5.44;100.00;101264.50;2611378;36;20522;-66
2021/10/22 00:39:10;;;;;;;10.55;2.60;;;;;;;5.49;100.00;101267.78;2611001;36;20030;-66
2021/10/22 00:41:41;;;;;;;12.50;2.85;;;;;;;5.61;100.00;101260.81;2610734;36;20646;-65
2021/10/22 00:44:09;;;;;;;6.43;2.15;;;;;;;5.60;100.00;101259.09;2610632;31;20050;-66
2021/10/22 00:46:38;;;;;;;13.10;2.50;;;;;;;5.65;100.00;101253.47;2610867;36;20042;-65
2021/10/22 00:49:09;;;;;;;12.55;2.75;;;;;;;5.76;100.00;101251.84;2610956;36;20034;-66
2021/10/22 00:51:37;;;;;;;14.93;2.60;;;;;;;5.90;100.00;101240.31;2610732;36;20064;-66
2021/10/22 00:54:12;;;;;;;14.25;2.55;;;;;;;5.87;100.00;101243.16;2610643;36;20669;-66
2021/10/22 00:56:40;;;;;;;14.90;2.53;;;;;;;5.89;100.00;101245.72;2610203;31;20030;-66
2021/10/22 00:59:09;;;;;;;10.05;2.28;;;;;;;5.96;100.00;101255.97;2610843;36;20344;-66
2021/10/22 01:01:41;;;;;;;18.08;3.55;;;;;;;6.00;100.00;101247.78;2610494;36;20034;-65
2021/10/22 01:04:10;;;;;;;11.88;2.35;;;;;;;5.92;100.00;101243.75;2610020;31;20034;-66
2021/10/22 01:06:39;;;;;;;15.27;2.88;;;;;;;5.95;100.00;101243.56;2611238;36;20650;-66
2021/10/22 01:09:12;;;;;;;10.00;2.28;;;;;;;5.96;100.00;101239.94;2610686;36;20050;-66
2021/10/22 01:11:41;;;;;;;14.23;2.70;;;;;;;6.02;100.00;101235.16;2611387;31;20035;-66
2021/10/22 01:14:11;;;;;;;7.35;2.67;;;;;;;6.04;100.00;101235.94;2610543;36;20030;-66
2021/10/22 01:16:40;;;;;;;12.57;3.00;;;;;;;5.95;100.00;101232.88;2610703;36;20030;-66
2021/10/22 01:19:14;;;;;;;9.20;2.80;;;;;;;5.91;100.00;101231.34;2610502;31;20026;-65
2021/10/22 01:21:47;;;;;;;14.35;2.88;;;;;;;5.86;100.00;101225.44;2610335;31;20118;-66
2021/10/22 01:24:17;;;;;;;12.85;2.45;;;;;;;5.85;100.00;101221.03;2610204;36;20446;-67
2021/10/22 01:26:46;;;;;;;12.88;2.22;;;;;;;5.79;100.00;101208.91;2610731;31;20457;-66
2021/10/22 01:29:14;;;;;;;9.75;2.08;;;;;;;5.73;100.00;101214.66;2610525;36;20082;-66
2021/10/22 01:31:42;;;;;;;13.68;2.30;;;;;;;5.63;100.00;101220.69;2609962;36;20057;-66
2021/10/22 01:34:11;;;;;;;8.93;2.93;;;;;;;5.58;100.00;101207.59;2610444;36;20154;-66
2021/10/22 01:36:41;;;;;;;8.57;2.40;;;;;;;5.54;100.00;101200.75;2610762;36;20034;-66
2021/10/22 01:39:11;;;;;;;;;;;;;;;5.58;100.00;101197.78;2610864;36;20041;-66
2021/10/22 01:41:39;;;;;;;10.40;2.50;;;;;;;5.61;100.00;101199.41;2610463;36;20431;-67
2021/10/22 01:44:12;;;;;;;12.00;2.80;;;;;;;5.68;100.00;101202.53;2610878;36;20054;-66
2021/10/22 01:46:40;;;;;;;9.75;2.30;;;;;;;5.60;100.00;101201.19;2611262;36;20038;-66
2021/10/22 01:49:09;;;;;;;10.43;2.20;;;;;;;5.58;100.00;101197.78;2611504;36;20053;-66
2021/10/22 01:51:37;;;;;;;7.23;2.53;;;;;;;5.56;100.00;101194.34;2611613;36;20522;-66
2021/10/22 01:54:05;;;;;;;14.07;2.50;;;;;;;5.63;100.00;101199.31;2612006;31;20508;-66
2021/10/22 01:56:36;;;;;;;7.75;2.30;;;;;;;5.65;100.00;101192.91;2611298;36;20030;-66
2021/10/22 01:59:04;;;;;;;13.95;2.75;;;;;;;5.69;100.00;101193.59;2611117;36;20030;-67
2021/10/22 02:01:32;;;;;;;12.38;2.08;;;;;;;5.71;100.00;101199.69;2610731;36;20574;-66
2021/10/22 02:04:01;;;;;;;9.40;2.30;;;;;;;5.74;100.00;101196.81;2611224;36;20057;-66
2021/10/22 02:06:29;;;;;;;13.35;2.35;;;;;;;5.71;100.00;101191.66;2611322;36;20034;-66
2021/10/22 02:08:57;;;;;;;11.40;2.10;;;;;;;5.69;100.00;101182.91;2611301;36;20122;-65
2021/10/22 02:11:26;;;;;;;10.02;2.00;;;;;;;5.63;100.00;101183.28;2611167;31;20291;-66
2021/10/22 02:13:57;;;;;;;12.43;1.88;;;;;;;5.59;100.00;101177.28;2611174;36;20030;-66
2021/10/22 02:16:25;;;;;;;10.80;2.53;;;;;;;5.53;100.00;101183.84;2611093;36;20058;-66
2021/10/22 02:18:54;;;;;;;8.73;1.88;;;;;;;5.59;100.00;101178.16;2611391;36;20053;-66
2021/10/22 02:21:22;;;;;;;8.85;2.28;;;;;;;5.59;100.00;101167.47;2610932;36;20034;-65
2021/10/22 02:23:51;;;;;;;11.43;2.57;;;;;;;5.52;100.00;101178.59;2611439;36;20066;-66
2021/10/22 02:26:19;;;;;;;8.75;2.17;;;;;;;5.52;100.00;101174.16;2610984;36;20030;-66
2021/10/22 02:28:47;;;;;;;10.95;1.92;;;;;;;5.48;100.00;101169.94;2611018;36;20030;-66
2021/10/22 02:31:19;;;;;;;10.88;2.25;;;;;;;5.52;100.00;101163.47;2611053;36;20643;-67
2021/10/22 02:33:48;;;;;;;5.28;1.77;;;;;;;5.46;100.00;101170.97;2611335;36;20447;-66
2021/10/22 02:36:16;;;;;;;7.30;1.83;;;;;;;5.33;100.00;101176.22;2611079;36;20053;-66
2021/10/22 02:38:44;;;;;;;7.40;1.43;;;;;;;5.36;100.00;101165.34;2611343;36;20034;-66
2021/10/22 02:41:13;;;;;;;8.55;1.70;;;;;;;5.35;100.00;101158.31;2610992;36;20442;-67
2021/10/22 02:43:41;;;;;;;13.15;2.08;;;;;;;5.35;100.00;101152.97;2611760;36;20524;-65
2021/10/22 02:46:10;;;;;;;11.03;1.97;;;;;;;5.36;100.00;101160.00;2610918;36;20061;-66
2021/10/22 02:48:41;;;;;;;13.27;1.92;;;;;;;5.40;100.00;101142.84;2610829;36;20031;-66
2021/10/22 02:51:09;;;;;;;13.15;2.20;;;;;;;5.36;100.00;101150.22;2610754;36;20074;-66
2021/10/22 02:53:37;;;;;;;8.73;2.20;;;;;;;5.39;100.00;101138.50;2611483;36;20862;-68
2021/10/22 02:56:06;;;;;;;9.70;2.10;;;;;;;5.49;100.00;101136.97;2611070;36;20645;-66
2021/10/22 02:58:35;;;;;;;6.90;1.98;;;;;;;5.46;100.00;101147.81;2611155;36;20208;-66
2021/10/22 03:01:05;;;;;;;8.18;1.83;;;;;;;5.45;100.00;101138.09;2611025;31;20666;-66
2021/10/22 03:03:33;;;;;;;11.63;2.58;;;;;;;5.41;100.00;101139.25;2610843;36;20125;-65
2021/10/22 03:06:04;;;;;;;12.45;1.90;;;;;;;5.43;100.00;101148.88;2611512;36;20030;-68
2021/10/22 03:08:32;;;;;;;9.63;1.65;;;;;;;5.36;100.00;101150.22;2611191;36;20030;-66
2021/10/22 03:13:27;;;;;;;8.13;2.50;;;;;;;5.28;100.00;101140.97;2611449;36;20034;-66
2021/10/22 03:15:56;;;;;;;9.68;2.38;;;;;;;5.16;100.00;101147.91;2610779;36;20536;-66
2021/10/22 03:18:24;;;;;;;10.48;2.53;;;;;;;5.08;100.00;101145.72;2610848;31;20162;-66
2021/10/22 03:20:52;;;;;;;7.85;2.20;;;;;;;5.00;100.00;101134.66;2611265;36;20179;-66
2021/10/22 03:23:23;;;;;;;10.70;2.40;;;;;;;5.01;100.00;101133.69;2610974;36;20030;-66
2021/10/22 03:25:52;;;;;;;16.85;2.70;;;;;;;5.02;100.00;101130.94;2611212;36;20034;-66
2021/10/22 03:28:21;;;;;;;8.48;2.35;;;;;;;5.03;100.00;101126.44;2610947;36;20034;-66
2021/10/22 03:30:49;;;;;;;12.48;2.40;;;;;;;5.12;100.00;101125.03;2611484;31;20170;-67
2021/10/22 03:33:17;;;;;;;7.53;2.05;;;;;;;5.07;100.00;101117.31;2611305;36;20030;-67
2021/10/22 03:35:45;;;;;;;10.77;2.30;;;;;;;5.13;100.00;101122.25;2611071;36;20034;-67
2021/10/22 03:38:14;;;;;;;13.73;2.38;;;;;;;5.15;100.00;101128.34;2610318;36;20146;-67
2021/10/22 03:40:44;;;;;;;12.85;2.30;;;;;;;5.16;100.00;101115.88;2610795;36;20030;-67
2021/10/22 03:43:13;;;;;;;12.35;2.38;;;;;;;5.28;100.00;101124.94;2610851;36;20529;-66
2021/10/22 03:45:41;;;;;;;7.97;1.70;;;;;;;5.53;100.00;101110.91;2610628;36;20129;-66
2021/10/22 03:48:09;;;;;;;11.20;2.45;;;;;;;5.52;100.00;101112.72;2610966;36;20031;-68
2021/10/22 03:50:37;;;;;;;10.93;2.47;;;;;;;5.58;100.00;101116.81;2611117;36;20105;-68
2021/10/22 03:53:07;;;;;;;11.02;2.63;;;;;;;5.59;100.00;101135.44;2611319;36;20102;-67
2021/10/22 03:55:35;;;;;;;9.60;2.22;;;;;;;5.70;100.00;101126.72;2610695;36;20042;-67
2021/10/22 03:58:06;;;;;;;10.52;2.20;;;;;;;5.87;100.00;101138.97;2611067;36;20034;-67
2021/10/22 04:00:34;;;;;;;7.70;1.70;;;;;;;5.88;100.00;101135.34;2610763;36;20559;-67
2021/10/22 04:03:02;;;;;;;11.75;2.75;;;;;;;5.94;100.00;101145.63;2611010;36;20627;-66
2021/10/22 04:05:30;;;;;;;12.63;2.28;;;;;;;5.96;100.00;101143.75;2610705;36;20070;-66
2021/10/22 04:07:59;;;;;;;8.10;1.92;;;;;;;6.22;100.00;101148.38;2611385;36;20069;-69
2021/10/22 04:10:27;;;;;;;10.03;1.90;;;;;;;6.50;100.00;101152.75;2610722;36;20162;-67
2021/10/22 04:12:55;;;;;;;6.85;2.67;;;;;;;6.48;100.00;101154.69;2611208;36;20162;-67
2021/10/22 04:18:05;;;;;;;12.65;2.75;;;;;;;6.56;100.00;101154.16;2611514;54;20038;-67
2021/10/22 04:20:34;;;;;;;10.00;2.13;;;;;;;6.51;100.00;101154.47;2610996;36;20122;-68
2021/10/22 04:23:02;;;;;;;10.57;1.85;;;;;;;6.52;100.00;101164.19;2611534;31;20459;-66
2021/10/22 04:25:31;;;;;;;8.85;2.00;;;;;;;6.52;100.00;101156.16;2610851;36;20279;-66
2021/10/22 04:27:59;;;;;;;13.68;3.10;;;;;;;6.49;100.00;101151.91;2611595;36;20602;-67
2021/10/22 04:30:27;;;;;;;9.68;1.90;;;;;;;6.46;100.00;101156.56;2610609;31;20041;-66
2021/10/22 04:32:56;;;;;;;14.80;2.65;;;;;;;6.49;100.00;101156.38;2611079;36;20039;-66
2021/10/22 04:35:27;;;;;;;14.05;1.80;;;;;;;6.54;100.00;101154.25;2611571;36;20173;-67
2021/10/22 04:40:30;;;;;;;11.95;1.90;;;;;;;6.56;100.00;101163.03;2611045;36;20053;-66
2021/10/22 04:43:42;;;;;;;9.65;1.90;;;;;;;6.61;100.00;101147.53;2610551;36;20642;-67
2021/10/22 04:46:10;;;;;;;11.82;1.92;;;;;;;6.49;100.00;101157.25;2610673;36;20073;-67
2021/10/22 04:48:38;;;;;;;14.77;2.47;;;;;;;6.54;100.00;101164.13;2611046;36;20426;-66
2021/10/22 04:51:09;;;;;;;12.68;2.22;;;;;;;6.63;100.00;101163.47;2611096;36;20037;-67
2021/10/22 04:53:37;;;;;;;12.73;2.20;;;;;;;6.61;100.00;101160.03;2611605;36;20413;-66
2021/10/22 04:56:06;;;;;;;10.50;2.50;;;;;;;6.55;100.00;101158.66;2610808;31;20030;-66
2021/10/22 04:58:34;;;;;;;10.67;2.30;;;;;;;6.57;100.00;101154.06;2610634;36;20118;-66
2021/10/22 05:01:03;;;;;;;11.25;2.28;;;;;;;6.58;100.00;101158.44;2610991;36;20407;-66
2021/10/22 05:03:32;;;;;;;12.05;2.30;;;;;;;6.56;100.00;101141.63;2610709;36;20031;-66
2021/10/22 05:06:00;;;;;;;11.90;2.67;;;;;;;6.63;100.00;101136.75;2612170;31;20758;-66
2021/10/22 05:08:31;;;;;;;12.75;2.47;;;;;;;6.58;100.00;101145.09;2610543;36;20511;-66
2021/10/22 05:11:00;;;;;;;8.18;2.17;;;;;;;6.61;100.00;101139.53;2611230;36;20034;-66
2021/10/22 05:13:28;;;;;;;10.02;3.22;;;;;;;6.58;100.00;101129.03;2610660;36;20035;-66
2021/10/22 05:15:56;;;;;;;13.82;2.25;;;;;;;6.51;100.00;101119.72;2610639;36;20065;-67
2021/10/22 05:18:25;;;;;;;8.55;1.92;;;;;;;6.46;100.00;101124.50;2611574;36;20546;-66
2021/10/22 05:20:53;;;;;;;13.38;2.75;;;;;;;6.43;100.00;101125.56;2612112;36;20613;-65
2021/10/22 05:23:21;;;;;;;9.90;2.60;;;;;;;6.42;100.00;101114.94;2611596;36;20174;-65
2021/10/22 05:25:52;;;;;;;13.13;2.60;;;;;;;6.35;100.00;101119.03;2611661;36;20128;-66
2021/10/22 05:28:20;;;;;;;16.05;3.00;;;;;;;6.30;100.00;101114.84;2611086;36;20030;-66
2021/10/22 05:30:48;;;;;;;7.75;2.47;;;;;;;6.38;100.00;101117.00;2611280;36;20054;-67
2021/10/22 05:33:19;;;;;;;13.77;2.85;;;;;;;6.45;100.00;101106.75;2611120;36;20065;-66
2021/10/22 05:35:47;;;;;;;7.97;2.88;;;;;;;6.40;100.00;101098.16;2611925;36;20031;-66
2021/10/22 05:38:15;;;;;;;18.90;3.42;;;;;;;6.39;100.00;101099.13;2611504;36;20034;-66
2021/10/22 05:40:43;;;;;;;18.48;2.67;;;;;;;6.42;100.00;101106.94;2611724;36;20157;-67
2021/10/22 05:43:14;;;;;;;12.38;2.65;;;;;;;6.46;100.00;101097.75;2612497;31;20068;-67
2021/10/22 05:45:43;;;;;;;15.45;3.20;;;;;;;6.43;100.00;101098.84;2611220;36;20034;-66
2021/10/22 05:48:11;;;;;;;14.30;2.90;;;;;;;6.48;100.00;101095.84;2611383;36;20038;-65
2021/10/22 05:50:41;;;;;;;14.55;3.05;;;;;;;6.46;100.00;101095.06;2611684;36;20031;-65
2021/10/22 05:53:09;;;;;;;13.13;2.55;;;;;;;6.54;100.00;101094.59;2612109;36;20510;-66
2021/10/22 05:55:38;;;;;;;10.13;1.95;;;;;;;6.61;100.00;101096.72;2611943;36;20379;-64
2021/10/22 05:58:07;;;;;;;9.68;1.85;;;;;;;6.75;100.00;101092.25;2611769;36;20042;-66
2021/10/22 06:00:41;;;;;;;7.10;1.92;;;;;;;6.89;100.00;101076.09;2610951;36;20030;-66
2021/10/22 06:03:09;;;;;;;12.75;2.15;;;;;;;6.88;100.00;101076.22;2611707;36;20491;-65
2021/10/22 06:05:39;;;;;;;11.55;1.98;;;;;;;7.01;100.00;101082.41;2611793;31;20035;-65
2021/10/22 06:11:10;;;;;;;8.95;1.60;;;;;;;7.11;100.00;101082.59;2611746;36;20550;-65
2021/10/22 06:13:38;;;;;;;7.60;1.70;;;;;;;7.05;100.00;101083.03;2611693;36;20057;-65
2021/10/22 06:16:10;;;;;;;9.88;1.52;;;;;;;7.20;100.00;101081.97;2611957;31;20467;-66
2021/10/22 06:18:45;;;;;;;8.20;1.60;;;;;;;7.27;100.00;101093.09;2611294;36;20031;-64
2021/10/22 06:21:20;;;;;;;8.95;1.77;;;;;;;7.35;100.00;101096.94;2611424;36;20082;-65
2021/10/22 06:23:56;;;;;;;7.30;1.88;;;;;;;7.43;100.00;101092.84;2611600;36;20030;-66
2021/10/22 06:26:25;;;;;;;8.95;2.03;;;;;;;7.52;100.00;101103.78;2611102;36;20041;-65
2021/10/22 06:28:54;;;;;;;9.45;2.08;;;;;;;7.53;100.00;101085.88;2611120;36;20030;-66
2021/10/22 06:31:25;;;;;;;9.23;1.80;;;;;;;7.53;100.00;101099.25;2610974;36;20126;-67
2021/10/22 06:33:54;;;;;;;9.98;2.15;;;;;;;7.63;100.00;101089.59;2611399;36;20031;-67
2021/10/22 06:36:22;;;;;;;8.85;1.90;;;;;;;7.74;100.00;101096.00;2611011;36;20157;-64
2021/10/22 06:38:50;;;;;;;8.50;2.07;;;;;;;7.67;100.00;101106.28;2611426;36;20145;-65
2021/10/22 06:41:19;;;;;;;9.25;2.03;;;;;;;7.81;100.00;101094.59;2611110;36;20038;-66
2021/10/22 06:43:47;;;;;;;13.13;2.53;;;;;;;7.88;100.00;101104.72;2611372;31;20037;-67
2021/10/22 06:46:16;;;;;;;8.50;2.33;;;;;;;7.89;100.00;101105.56;2610869;36;20057;-66
2021/10/22 06:48:48;;;;;;;10.52;1.85;;;;;;;7.99;100.00;101100.41;2611351;36;20030;-65
2021/10/22 06:51:19;;;;;;;11.25;2.42;;;;;;;8.03;100.00;101101.91;2611026;36;20133;-67
2021/10/22 06:53:48;;;;;;;12.38;1.98;;;;;;;8.02;100.00;101098.38;2611459;36;20570;-64
2021/10/22 06:56:16;;;;;;;9.30;1.90;;;;;;;8.00;100.00;101094.94;2611187;36;21119;-65
2021/10/22 06:58:44;;;;;;;10.77;2.00;;;;;;;8.03;100.00;101097.38;2612474;36;20431;-64
2021/10/22 07:01:13;;;;;;;11.25;2.20;;;;;;;8.07;100.00;101093.50;2612107;36;20486;-64
2021/10/22 07:03:43;;;;;;;8.67;1.77;;;;;;;8.19;100.00;101090.88;2612238;36;20586;-67
2021/10/22 07:08:56;;;;;;;7.68;1.60;;;;;;;8.18;100.00;101083.81;2612188;36;20034;-64
2021/10/22 07:11:25;;;;;;;;;;;;;;;8.18;100.00;101091.84;2612708;36;20523;-65
2021/10/22 07:13:54;;;;;;;12.10;2.08;;;;;;;8.30;100.00;101103.47;2612367;36;19985;-64
2021/10/22 07:16:26;;;;;;;8.13;1.55;;;;;;;8.46;100.00;101100.53;2612147;36;20447;-64
2021/10/22 07:18:54;;;;;;;10.90;2.40;;;;;;;8.46;100.00;101108.56;2612763;36;20491;-66
2021/10/22 07:21:25;;;;;;;9.95;2.45;;;;;;;8.55;100.00;101100.69;2611864;36;20037;-63
2021/10/22 07:23:56;;;;;;;12.30;2.55;;;;;;;8.47;100.00;101105.78;2612346;31;20082;-63
2021/10/22 07:26:24;;;;;;;6.57;1.70;;;;;;;8.53;100.00;101107.16;2611641;36;20045;-65
2021/10/22 07:28:52;;;;;;;9.90;2.13;;;;;;;8.52;100.00;101094.69;2611902;36;20031;-65
2021/10/22 07:31:20;;;;;;;18.65;2.97;;;;;;;8.62;100.00;101098.38;2611721;36;20506;-65
2021/10/22 07:33:48;;;;;;;10.70;2.63;;;;;;;8.73;100.00;101103.78;2611786;36;20664;-64
2021/10/22 07:36:18;;;;;;;12.52;2.15;;;;;;;8.85;100.00;101099.31;2611783;36;20030;-65
2021/10/22 07:38:49;;;;;;;9.95;2.33;;;;;;;8.90;100.00;101098.94;2611927;36;20178;-64
2021/10/22 07:41:18;;;;;;;9.98;2.92;;;;;;;8.91;100.00;101100.66;2611458;36;20030;-64
2021/10/22 07:43:47;;;;;;;10.57;2.13;;;;;;;8.95;100.00;101099.41;2613093;36;20699;-63
2021/10/22 07:46:16;;;;;;;;;;;;;;;9.03;100.00;101090.78;2612405;36;20042;-63
2021/10/22 07:48:44;;;;;;;10.55;2.15;;;;;;;9.01;100.00;101104.34;2612233;36;20343;-64
2021/10/22 07:51:14;;;;;;;9.95;2.28;;;;;;;8.98;100.00;101099.22;2612473;36;20785;-64
2021/10/22 07:53:43;;;;;;;6.30;1.50;;;;;;;8.95;100.00;101104.78;2612778;36;20467;-64
2021/10/22 07:56:14;;;;;;;11.98;2.75;;;;;;;8.87;100.00;101112.59;2611904;36;20174;-66
2021/10/22 07:58:42;;;;;;;11.13;2.30;;;;;;;8.74;100.00;101124.25;2612602;36;20057;-64
2021/10/22 08:01:10;;;;;;;8.43;2.10;;;;;;;8.71;100.00;101137.91;2612040;36;20034;-65
2021/10/22 08:03:39;;;;;;;10.77;2.17;;;;;;;8.62;100.00;101132.41;2612012;36;20038;-65
2021/10/22 08:06:10;;;;;;;12.75;2.30;;;;;;;8.60;100.00;101137.91;2612234;36;20038;-64
2021/10/22 08:08:38;;;;;;;9.25;2.70;;;;;;;8.60;100.00;101119.13;2611959;36;20041;-64
2021/10/22 08:11:07;;;;;;;14.32;3.38;;;;;;;8.61;100.00;101139.59;2611949;36;20132;-64
2021/10/22 08:13:38;;;;;;;11.75;2.55;;;;;;;8.60;100.00;101143.28;2611995;36;20031;-66
2021/10/22 08:16:06;;;;;;;13.25;2.53;;;;;;;8.69;100.00;101145.25;2611491;36;20030;-67
2021/10/22 08:18:36;;;;;;;15.45;2.33;;;;;;;8.71;100.00;101145.97;2611732;36;20559;-64
2021/10/22 08:21:16;;;;;;;13.98;2.58;;;;;;;8.69;100.00;101145.25;2611726;36;20150;-65
2021/10/22 08:23:45;;;;;;;10.32;2.28;;;;;;;8.67;100.00;101141.84;2612043;31;20494;-65
2021/10/22 08:26:13;;;;;;;14.80;2.73;;;;;;;8.72;100.00;101153.06;2611497;31;20134;-65
2021/10/22 08:28:44;;;;;;;13.23;2.40;;;;;;;8.75;100.00;101143.94;2611845;36;20927;-65
2021/10/22 08:31:13;;;;;;;12.15;2.30;;;;;;;8.77;100.00;101156.25;2611349;36;20562;-65
2021/10/22 08:33:41;;;;;;;15.57;2.30;;;;;;;8.82;100.00;101160.41;2610439;36;20153;-64
2021/10/22 08:36:10;;;;;;;14.77;3.20;;;;;;;8.86;100.00;101172.63;2609849;31;20495;-65
2021/10/22 08:38:38;;;;;;;10.55;2.28;;;;;;;8.83;100.00;101175.53;2610055;36;20053;-64
2021/10/22 08:41:11;;;;;;;14.75;3.20;;;;;;;8.76;100.00;101181.38;2609911;36;20030;-66
2021/10/22 08:43:40;;;;;;;16.90;3.03;;;;;;;8.78;100.00;101194.69;2610310;36;20045;-66
2021/10/22 08:46:14;;;;;;;17.83;3.00;;;;;;;8.79;100.00;101187.47;2610142;36;20042;-65
2021/10/22 08:48:43;;;;;;;13.05;2.55;;;;;;;8.76;100.00;101202.00;2610746;36;20110;-66
2021/10/22 08:51:15;;;;;;;13.80;2.83;;;;;;;8.64;100.00;101214.50;2611749;36;20980;-65
2021/10/22 08:53:43;;;;;;;14.07;3.20;;;;;;;8.61;100.00;101214.72;2611998;36;20031;-65
2021/10/22 08:56:11;;;;;;;20.98;3.63;;;;;;;8.59;100.00;101205.94;2611671;36;20154;-65
2021/10/22 08:58:39;;;;;;;14.50;3.10;;;;;;;8.64;100.00;101216.31;2611739;36;20162;-65
2021/10/22 09:01:10;;;;;;;15.68;2.95;;;;;;;8.61;100.00;101201.31;2612245;36;20157;-66
2021/10/22 09:03:40;;;;;;;13.57;2.90;;;;;;;8.68;100.00;101209.75;2612709;31;20543;-68
2021/10/22 09:06:13;;;;;;;14.32;3.30;;;;;;;8.61;100.00;101198.63;2612118;36;20533;-67
2021/10/22 09:08:43;;;;;;;14.27;2.65;;;;;;;8.49;100.00;101197.72;2611982;36;20137;-65
2021/10/22 09:11:23;;;;;;;12.73;3.10;;;;;;;8.39;100.00;101186.81;2611848;36;20046;-66
2021/10/22 09:14:03;;;;;;;9.93;2.30;;;;;;;8.37;100.00;101202.13;2612016;36;20058;-65
2021/10/22 09:16:42;;;;;;;11.23;2.47;;;;;;;8.38;100.00;101197.66;2612043;36;20600;-66
2021/10/22 09:19:10;;;;;;;10.57;2.47;;;;;;;8.35;100.00;101193.34;2612465;36;20030;-66
2021/10/22 09:21:39;;;;;;;16.17;2.60;;;;;;;8.49;100.00;101194.19;2612155;36;20143;-67
2021/10/22 09:24:18;;;;;;;11.98;2.58;;;;;;;8.71;100.00;101205.00;2611915;31;20306;-66
2021/10/22 09:26:52;;;;;;;13.10;3.15;;;;;;;9.02;100.00;101223.31;2612406;36;20053;-66
2021/10/22 09:29:23;;;;;;;16.45;2.75;;;;;;;8.98;100.00;101221.81;2612329;36;20034;-66
2021/10/22 09:31:57;;;;;;;11.00;2.55;;;;;;;9.17;100.00;101213.22;2612567;36;20053;-66
2021/10/22 09:34:33;;;;;;;16.38;2.75;;;;;;;9.37;100.00;101223.28;2614228;36;20050;-67
2021/10/22 09:37:03;;;;;;;14.00;3.13;;;;;;;9.60;100.00;101199.97;2611863;36;20567;-68
2021/10/22 09:39:36;;;;;;;;;;;;;;;9.76;100.00;101210.38;2612608;36;20157;-67
2021/10/22 09:42:05;;;;;;;14.20;2.63;;;;;;;9.65;100.00;101196.94;2612537;36;20555;-67
2021/10/22 09:44:38;;;;;;;15.32;3.15;;;;;;;9.86;100.00;101199.72;2611204;36;20030;-68
2021/10/22 09:47:20;;;;;;;11.60;2.50;;;;;;;9.94;100.00;101207.19;2612009;36;20146;-66
2021/10/22 09:49:52;;;;;;;12.43;2.40;;;;;;;10.10;100.00;101204.09;2611990;36;20039;-67
2021/10/22 09:52:21;;;;;;;13.73;2.10;;;;;;;10.15;100.00;101197.38;2611597;36;20061;-67
2021/10/22 09:54:54;;;;;;;13.07;2.47;;;;;;;10.02;100.00;101201.19;2612215;36;20034;-67
2021/10/22 09:57:26;;;;;;;9.38;2.20;;;;;;;10.14;100.00;101198.38;2612474;36;20030;-66
2021/10/22 10:00:05;;;;;;;13.90;2.60;;;;;;;10.26;100.00;101204.59;2612018;36;20126;-67
2021/10/22 10:02:36;;;;;;;11.23;2.10;;;;;;;10.70;100.00;101220.72;2611339;36;20558;-67
2021/10/22 10:05:06;;;;;;;16.27;2.53;;;;;;;11.10;100.00;101212.00;2612262;36;20057;-69
2021/10/22 10:07:38;;;;;;;16.75;3.22;;;;;;;11.06;100.00;101213.25;2612411;36;20053;-67
2021/10/22 10:10:07;;;;;;;10.40;2.13;;;;;;;10.97;100.00;101219.44;2612724;36;20038;-67
2021/10/22 10:12:37;;;;;;;12.13;2.40;;;;;;;10.72;100.00;101210.72;2611865;36;20130;-67
2021/10/22 10:15:06;;;;;;;17.73;2.60;;;;;;;10.61;100.00;101208.06;2612033;36;20031;-67
2021/10/22 10:17:39;;;;;;;10.07;2.33;;;;;;;10.69;100.00;101205.59;2611255;36;20030;-67
2021/10/22 10:20:09;;;;;;;17.80;2.78;;;;;;;10.51;100.00;101207.94;2612595;36;20500;-67
2021/10/22 10:22:42;;;;;;;17.35;3.03;;;;;;;10.63;100.00;101220.41;2611833;36;20057;-66
2021/10/22 10:25:12;;;;;;;12.10;2.38;;;;;;;10.67;100.00;101213.78;2612544;31;20708;-67
2021/10/22 10:27:47;;;;;;;12.80;2.30;;;;;;;10.64;100.00;101229.31;2611791;36;20640;-66
2021/10/22 10:30:16;;;;;;;12.70;1.90;;;;;;;10.70;100.00;101231.50;2610726;36;20070;-67
2021/10/22 10:32:47;;;;;;;14.68;2.42;;;;;;;10.69;100.00;101232.50;2611864;36;20581;-66
2021/10/22 10:35:17;;;;;;;11.45;2.38;;;;;;;10.94;100.00;101230.44;2611596;36;20126;-67
2021/10/22 10:37:49;;;;;;;11.55;2.33;;;;;;;11.13;100.00;101230.59;2612165;36;20141;-68
2021/10/22 10:40:24;;;;;;;9.48;2.38;;;;;;;11.16;100.00;101227.63;2611378;36;20063;-66
2021/10/22 10:42:55;;;;;;;13.90;2.30;;;;;;;11.24;100.00;101229.66;2612797;36;20494;-66
2021/10/22 10:45:45;;;;;;;8.43;1.95;;;;;;;11.52;100.00;101232.69;2611914;36;20034;-66
2021/10/22 10:48:21;;;;;;;13.95;2.55;;;;;;;11.95;100.00;101230.78;2611306;36;20559;-67
2021/10/22 10:50:54;;;;;;;10.70;1.88;;;;;;;11.86;100.00;101232.44;2611775;36;20065;-65
2021/10/22 10:53:38;;;;;;;10.40;2.75;;;;;;;11.72;100.00;101236.34;2611885;36;20042;-66
2021/10/22 10:56:08;;;;;;;8.70;2.20;;;;;;;11.64;100.00;101241.53;2611166;36;20570;-65
2021/10/22 12:16:15;;;;;;;14.32;3.17;;;;;;;10.10;100.00;101395.94;2612701;54;20034;-68
2021/10/22 12:18:46;;;;;;;14.77;3.28;;;;;;;10.03;100.00;101418.91;2610500;36;20034;-64
2021/10/22 12:21:14;;;;;;;12.27;3.03;;;;;;;9.98;100.00;101415.69;2611174;31;20505;-66
2021/10/22 12:23:42;;;;;;;14.30;3.17;;;;;;;9.98;100.00;101437.22;2611690;36;20058;-67
2021/10/22 12:26:22;;;;;;;18.13;3.72;;;;;;;10.04;100.00;101423.31;2609648;36;20133;-65
2021/10/22 12:29:01;;;;;;;10.38;2.35;;;;;;;9.94;100.00;101425.00;2610540;36;20614;-65
2021/10/22 12:31:40;;;;;;;9.85;2.72;;;;;;;10.08;100.00;101434.69;2610459;36;20042;-66
2021/10/22 12:34:09;;;;;;;8.10;2.78;;;;;;;10.13;100.00;101430.66;2610936;36;20035;-66
2021/10/22 12:36:40;;;;;;;9.48;2.63;;;;;;;10.28;100.00;101433.13;2610614;36;20110;-67
2021/10/22 12:39:23;;;;;;;9.65;2.60;;;;;;;10.30;100.00;101433.88;2611773;31;20034;-67
2021/10/22 12:41:52;;;;;;;12.05;2.85;;;;;;;10.22;100.00;101434.47;2611084;31;20182;-67
2021/10/22 12:44:21;;;;;;;6.43;2.50;;;;;;;10.23;100.00;101435.31;2610851;36;20573;-68
2021/10/22 12:46:59;;;;;;;10.35;2.88;;;;;;;10.27;100.00;101442.19;2611300;36;20038;-66
2021/10/22 12:49:29;;;;;;;12.13;2.20;;;;;;;10.32;100.00;101437.28;2611138;36;20169;-66
2021/10/22 12:51:58;;;;;;;;;;;;;;;10.27;100.00;101442.19;2611093;36;20411;-69
2021/10/22 12:54:26;;;;;;;12.98;2.78;;;;;;;10.25;100.00;101453.06;2610520;36;19953;-68
2021/10/22 12:56:58;;;;;;;14.32;3.25;;;;;;;10.28;100.00;101450.13;2610264;36;20157;-68
2021/10/22 12:59:29;;;;;;;12.40;2.13;;;;;;;10.31;100.00;101449.03;2610661;36;20037;-71
2021/10/22 13:02:01;;;;;;;12.68;2.17;;;;;;;10.49;100.00;101442.22;2611337;36;20030;-67
2021/10/22 13:04:29;;;;;;;10.82;1.80;;;;;;;10.56;100.00;101450.69;2611944;36;20127;-67